San Diego, CA

9:40 PM PDT on September 30, 2014 (GMT -0700)
Miramar Marine Corps Air Station-Mitscher | Change Station
CLOSE
Current Station
Airport
Location: Miramar MCAS,
Elevation: 476 ft
Nearby Weather Stations
Active Advisory: Heat Advisory

Elev 476 ft 32.86 °N, 117.14 °W | Updated 45 minutes ago

Clear
Clear
66 °F
Feels Like 66 °F
N
0
Wind Variable Wind from North

Today
High -- | Low -- °F
--% Chance of Precip.
Yesterday
High -- | Low -- °F
Precip. -- in
6:42 AM 6:34 PM
Waxing Crescent, 43% visible
Pressure 29.78 in
Visibility 10.0 miles
Clouds Few 1000 ft
Dew Point 55 °F
Humidity 68%
Rainfall 0.00 in
Snow Depth 0 in , 0 in , 1 in
UV 0 out of 12
Pollen 5.10 out of 12
Ozone Good
PM2.5 Good
Flu Activity Not available.
METAR KNKX 010355Z 00000KT 10SM FEW010 19/13 A2980 RMK AO2 SLP085 T01890128

More Conditions Fewer Conditions

Pressure 29.78 in
Visibility 10.0 miles
Clouds Few 1000 ft
Dew Point 55 °F
Humidity 68%
Rainfall 0.00 in
Snow Depth 0 in , 0 in , 1 in
UV 0 out of 12
Pollen 5.10 out of 12
Ozone Good
PM2.5 Good
Flu Activity Not available.
METAR KNKX 010355Z 00000KT 10SM FEW010 19/13 A2980 RMK AO2 SLP085 T01890128

More Conditions Fewer Conditions

10-Day Weather Forecast

Almanac

Astronomy

Sep. 30, 2014 Rise Set
Actual Time 6:42 AM PDT 6:34 PM PDT
Civil Twilight 6:17 AM PDT 6:58 PM PDT
Nautical Twilight 5:48 AM PDT 7:27 PM PDT
Astronomical Twilight 5:20 AM PDT 7:56 PM PDT
Moon 12:40 PM PDT (9/30) 11:23 PM PDT (9/30)
Length of Visible Light 12h 41m
Length of Day
11h 52m
Tomorrow will be 2m 1s shorter.
Waxing Crescent, 43% of the Moon is Illuminated
Oct 1
Waxing Crescent
Oct 1
First Quarter
Oct 8
Full
Oct 15
Last Quarter
Oct 23
New

Yesterday's Extremes

State Highs State Lows

Community

WunderPhotos

Upload Photos

1,757,847 photos uploaded!

Nearby

Air Quality

  Air Quality AQ Index Pollutant
Yesterday Good
OZONE
Yesterday Good
PM2.5
Current Good
PM2.5
Current Good
OZONE
Tuesday Good
PM2.5
Tuesday Good
OZONE
Wednesday Moderate
PM2.5
Wednesday Good
OZONE

Snow Depth

Station Depth Elevation
Blue Lakes 0 in 8000 ft
Hagan's Meadow 0 in 8000 ft
Rubicon #2 0 in 7500 ft
Burnside Lake 1 in 8139 ft
Heavenly Valley 0 in 8850 ft

Earthquake Activity

City Distance Mag. Time & Date
Avalon, California 71 miles 2.6 1:28 PM PDT
2014-09-30
Minimum magnitude displayed is 2.5.

Coastal Water Temperatures

Place Temperature
La Jolla, CA 71.1 °F
San Diego, CA 73.9 °F

Nearby Weather Stations